Time;durP1;ratioP1;P1;durP2;ratioP2;P2;SDS_P1;SDS_P2;PMS_P1;PMS_P2;Temp;Humidity;BMP_temperature;BMP_pressure;BME280_temperature;BME280_humidity;BME280_pressure;Samples;Min_cycle;Max_cycle;Signal;HPM_P1;HPM_P2
2022/04/18 00:00:12;;;;;;;0.10;0.10;;;9.20;99.90;;;;;;5002094;28;20681;-83
2022/04/18 00:02:38;;;;;;;0.30;0.30;;;9.20;99.90;;;;;;5000377;28;20189;-82
2022/04/18 00:05:04;;;;;;;0.20;0.20;;;9.10;99.90;;;;;;5006745;28;20192;-82
2022/04/18 00:07:30;;;;;;;0.10;0.10;;;9.00;99.90;;;;;;5006607;28;21328;-82
2022/04/18 00:09:55;;;;;;;0.33;0.23;;;9.00;99.90;;;;;;5006901;28;20185;-83
2022/04/18 00:12:21;;;;;;;0.20;0.20;;;9.00;99.90;;;;;;5005661;28;20229;-83
2022/04/18 00:14:46;;;;;;;0.53;0.53;;;9.00;99.90;;;;;;5001538;28;20207;-82
2022/04/18 00:17:12;;;;;;;0.40;0.30;;;9.00;99.90;;;;;;5006455;28;20194;-83
2022/04/18 00:19:38;;;;;;;0.10;0.10;;;9.00;99.90;;;;;;5006896;28;20186;-83
2022/04/18 00:22:04;;;;;;;0.20;0.20;;;9.00;99.90;;;;;;5005350;28;20219;-82
2022/04/18 00:24:30;;;;;;;0.30;0.30;;;8.90;99.90;;;;;;5007228;28;20191;-83
2022/04/18 00:26:56;;;;;;;0.10;0.10;;;8.90;99.90;;;;;;5007269;28;20733;-82
2022/04/18 00:29:22;;;;;;;0.53;0.17;;;8.90;99.90;;;;;;5006852;28;20985;-82
2022/04/18 00:31:47;;;;;;;0.30;0.30;;;8.90;99.90;;;;;;5002463;28;20242;-82
2022/04/18 00:34:14;;;;;;;0.10;0.10;;;8.80;99.90;;;;;;5015433;28;20219;-82
2022/04/18 00:36:40;;;;;;;0.13;0.13;;;8.80;99.90;;;;;;5000781;28;20241;-82
2022/04/18 00:39:06;;;;;;;0.20;0.20;;;8.70;99.90;;;;;;5001487;28;20210;-82
2022/04/18 00:41:31;;;;;;;0.10;0.10;;;8.70;99.90;;;;;;5004921;28;20191;-82
2022/04/18 00:43:57;;;;;;;0.10;0.10;;;8.70;99.90;;;;;;4999897;28;20189;-82
2022/04/18 00:46:23;;;;;;;2.63;0.47;;;8.70;99.90;;;;;;5005562;28;20195;-82
2022/04/18 00:48:49;;;;;;;0.30;0.30;;;8.70;99.90;;;;;;5006167;28;20629;-82
2022/04/18 00:51:19;;;;;;;0.40;0.40;;;8.60;99.90;;;;;;5000321;28;20209;-82
2022/04/18 00:53:45;;;;;;;0.30;0.23;;;8.60;99.90;;;;;;4998507;28;20240;-82
2022/04/18 00:56:17;;;;;;;0.10;0.10;;;8.60;99.90;;;;;;5001290;28;20190;-82
2022/04/18 00:58:44;;;;;;;0.20;0.20;;;8.60;99.90;;;;;;5006364;28;20222;-82
2022/04/18 01:01:10;;;;;;;0.20;0.20;;;8.60;99.90;;;;;;5000965;28;20264;-82
2022/04/18 01:03:35;;;;;;;0.17;0.17;;;8.60;99.90;;;;;;5005727;28;20221;-82
2022/04/18 01:06:03;;;;;;;0.20;0.20;;;8.50;99.90;;;;;;5005651;28;20648;-82
2022/04/18 01:08:30;;;;;;;0.10;0.10;;;8.50;99.90;;;;;;5006887;28;20220;-83
2022/04/18 01:10:55;;;;;;;0.10;0.10;;;8.50;99.90;;;;;;4998581;28;20766;-82
2022/04/18 01:13:22;;;;;;;0.17;0.17;;;8.50;99.90;;;;;;4989477;28;20202;-82
2022/04/18 01:15:57;;;;;;;0.20;0.20;;;8.50;99.90;;;;;;5015743;28;20241;-82
2022/04/18 01:18:23;;;;;;;0.30;0.30;;;8.50;99.90;;;;;;5005718;28;20714;-82
2022/04/18 01:20:49;;;;;;;0.10;0.10;;;8.50;99.90;;;;;;5005935;28;20240;-82
2022/04/18 01:23:17;;;;;;;0.20;0.20;;;8.40;99.90;;;;;;5005236;28;20248;-82
2022/04/18 01:31:11;;;;;;;1.70;0.77;;;8.40;99.90;;;;;;5000313;28;20220;-82
2022/04/18 01:33:37;;;;;;;0.10;0.10;;;8.30;99.90;;;;;;5005002;28;20194;-82
2022/04/18 01:36:02;;;;;;;0.47;0.47;;;8.30;99.90;;;;;;5006334;28;20194;-81
2022/04/18 01:38:28;;;;;;;0.33;0.20;;;8.30;99.90;;;;;;5000891;28;20261;-82
2022/04/18 01:40:53;;;;;;;0.50;0.40;;;8.40;99.90;;;;;;5016926;28;20204;-82
2022/04/18 01:43:19;;;;;;;0.23;0.23;;;8.30;99.90;;;;;;5004391;28;20189;-81
2022/04/18 01:45:45;;;;;;;0.30;0.30;;;8.30;99.90;;;;;;5004360;28;20196;-83
2022/04/18 01:48:11;;;;;;;0.63;0.40;;;8.20;99.90;;;;;;5006165;28;20264;-82
2022/04/18 01:50:37;;;;;;;0.23;0.23;;;8.20;99.90;;;;;;5005099;28;20220;-82
2022/04/18 01:53:03;;;;;;;0.10;0.10;;;8.10;99.90;;;;;;5004754;28;20276;-82
2022/04/18 01:55:29;;;;;;;0.43;0.43;;;8.10;99.90;;;;;;5008854;28;20190;-83
2022/04/18 01:57:55;;;;;;;0.27;0.27;;;8.00;99.90;;;;;;5019517;28;20210;-81
2022/04/18 02:00:20;;;;;;;0.30;0.30;;;8.00;99.90;;;;;;5024238;28;20228;-81
2022/04/18 02:02:46;;;;;;;0.30;0.30;;;8.00;99.90;;;;;;5022753;28;20194;-83
2022/04/18 02:05:11;;;;;;;0.27;0.23;;;7.90;99.90;;;;;;5023027;28;20177;-82
2022/04/18 02:07:38;;;;;;;0.70;0.50;;;7.80;99.90;;;;;;5033035;28;20313;-83
2022/04/18 02:10:04;;;;;;;0.20;0.20;;;7.80;99.90;;;;;;5021192;28;20189;-83
2022/04/18 02:12:30;;;;;;;3.67;0.80;;;7.80;99.90;;;;;;5016883;28;20226;-83
2022/04/18 02:14:55;;;;;;;0.10;0.10;;;7.80;99.90;;;;;;5024921;28;20217;-82
2022/04/18 02:17:21;;;;;;;0.10;0.10;;;7.70;99.90;;;;;;5024293;28;20721;-82
2022/04/18 02:19:46;;;;;;;0.10;0.10;;;7.70;99.90;;;;;;5020330;28;20186;-83
2022/04/18 02:22:12;;;;;;;0.10;0.10;;;7.70;99.90;;;;;;5017632;28;20195;-82
2022/04/18 02:24:38;;;;;;;0.20;0.20;;;7.70;99.90;;;;;;5033568;28;20212;-82
2022/04/18 02:27:04;;;;;;;0.10;0.10;;;7.70;99.90;;;;;;5022446;28;20181;-82
2022/04/18 02:29:30;;;;;;;0.20;0.20;;;7.70;99.90;;;;;;5022317;28;20197;-82
2022/04/18 02:34:40;;;;;;;0.10;0.10;;;7.70;99.90;;;;;;5015817;28;20201;-82
2022/04/18 02:37:05;;;;;;;0.10;0.10;;;7.70;99.90;;;;;;5029653;28;20196;-82
2022/04/18 02:39:31;;;;;;;0.40;0.40;;;7.70;99.90;;;;;;5023014;28;20182;-82
2022/04/18 02:41:57;;;;;;;0.10;0.10;;;7.80;99.90;;;;;;5022707;28;20184;-82
2022/04/18 02:44:23;;;;;;;0.37;0.37;;;7.80;99.90;;;;;;5024081;28;20197;-83
2022/04/18 02:46:49;;;;;;;0.20;0.20;;;7.80;99.90;;;;;;5022078;28;20201;-82
2022/04/18 02:49:15;;;;;;;0.10;0.10;;;7.80;99.90;;;;;;5030312;28;20206;-82
2022/04/18 02:51:40;;;;;;;0.37;0.37;;;7.80;99.90;;;;;;5008116;28;20220;-82
2022/04/18 02:54:06;;;;;;;1.70;0.50;;;7.80;99.90;;;;;;5016038;28;20269;-83
2022/04/18 02:56:32;;;;;;;0.90;0.60;;;7.80;99.90;;;;;;5015626;28;20201;-83
2022/04/18 02:58:57;;;;;;;0.10;0.10;;;7.80;99.90;;;;;;5013902;28;20347;-83
2022/04/18 03:01:23;;;;;;;0.50;0.50;;;7.70;99.90;;;;;;5023098;28;20286;-82
2022/04/18 03:03:48;;;;;;;0.10;0.10;;;7.70;99.90;;;;;;5022630;28;20188;-83
2022/04/18 03:06:14;;;;;;;0.17;0.17;;;7.70;99.90;;;;;;5014006;28;20270;-83
2022/04/18 03:08:39;;;;;;;0.10;0.10;;;7.70;99.90;;;;;;5006054;28;20306;-82
2022/04/18 03:11:05;;;;;;;1.60;0.20;;;7.60;99.90;;;;;;5002192;28;20213;-83
2022/04/18 03:13:36;;;;;;;1.10;0.20;;;7.70;99.90;;;;;;5009779;28;20273;-82
2022/04/18 03:16:03;;;;;;;0.10;0.10;;;7.70;99.90;;;;;;5010999;28;20191;-83
2022/04/18 03:18:29;;;;;;;0.20;0.13;;;7.60;99.90;;;;;;5012635;28;20211;-83
2022/04/18 03:20:54;;;;;;;0.10;0.10;;;7.60;99.90;;;;;;5012575;28;20188;-83
2022/04/18 03:23:20;;;;;;;0.10;0.10;;;7.60;99.90;;;;;;5013055;28;20196;-83
2022/04/18 03:25:45;;;;;;;0.10;0.10;;;7.60;99.90;;;;;;5012867;28;20553;-82
2022/04/18 03:28:11;;;;;;;0.10;0.10;;;7.50;99.90;;;;;;5011964;28;20522;-83
2022/04/18 03:30:37;;;;;;;0.20;0.20;;;7.50;99.90;;;;;;5012283;28;20211;-83
2022/04/18 03:33:03;;;;;;;0.10;0.10;;;7.50;99.90;;;;;;5010262;28;20183;-81
2022/04/18 03:35:30;;;;;;;0.20;0.20;;;7.50;99.90;;;;;;5010751;28;20185;-83
2022/04/18 03:40:40;;;;;;;0.27;0.27;;;7.50;99.90;;;;;;5006937;28;20192;-83
2022/04/18 03:43:06;;;;;;;0.10;0.10;;;7.50;99.90;;;;;;5005000;28;20191;-83
2022/04/18 03:45:31;;;;;;;0.50;0.40;;;7.40;99.90;;;;;;5022357;28;20193;-83
2022/04/18 03:47:57;;;;;;;1.10;1.10;;;7.50;99.90;;;;;;5006851;28;20208;-83
2022/04/18 03:50:22;;;;;;;0.10;0.10;;;7.50;99.90;;;;;;5010994;28;20197;-83
2022/04/18 03:52:48;;;;;;;0.50;0.50;;;7.40;99.90;;;;;;5008746;28;20283;-82
2022/04/18 03:55:14;;;;;;;0.17;0.17;;;7.40;99.90;;;;;;5019377;28;20236;-83
2022/04/18 03:57:40;;;;;;;0.20;0.20;;;7.50;99.90;;;;;;5011315;28;20258;-82
2022/04/18 04:00:07;;;;;;;0.30;0.30;;;7.40;99.90;;;;;;5002191;28;20205;-82
2022/04/18 04:02:33;;;;;;;0.10;0.10;;;7.40;99.90;;;;;;5004682;28;20207;-82
2022/04/18 04:04:58;;;;;;;0.20;0.20;;;7.40;99.90;;;;;;5010574;28;20197;-82
2022/04/18 04:07:24;;;;;;;0.30;0.30;;;7.40;99.90;;;;;;5018013;28;20352;-83
2022/04/18 04:09:49;;;;;;;0.33;0.33;;;7.40;99.90;;;;;;5010284;28;20188;-82
2022/04/18 04:12:25;;;;;;;4.37;0.30;;;7.40;99.90;;;;;;5009219;28;20222;-83
2022/04/18 04:14:52;;;;;;;0.10;0.10;;;7.40;99.90;;;;;;5003034;28;20187;-83
2022/04/18 04:17:18;;;;;;;0.10;0.10;;;7.40;99.90;;;;;;5003917;28;20200;-82
2022/04/18 04:19:44;;;;;;;0.40;0.40;;;7.40;99.90;;;;;;5003810;28;20189;-83
2022/04/18 04:22:10;;;;;;;0.10;0.10;;;7.40;99.90;;;;;;5010411;28;21233;-83
2022/04/18 04:24:35;;;;;;;0.20;0.20;;;7.30;99.90;;;;;;5019146;28;20196;-83
2022/04/18 04:27:01;;;;;;;0.10;0.10;;;7.30;99.90;;;;;;5008858;28;20188;-83
2022/04/18 04:29:26;;;;;;;0.10;0.10;;;7.30;99.90;;;;;;5009768;28;20274;-83
2022/04/18 04:31:53;;;;;;;0.17;0.17;;;7.40;99.90;;;;;;5019738;28;20217;-83
2022/04/18 04:34:19;;;;;;;0.53;0.50;;;7.40;99.90;;;;;;5009807;28;20180;-83
2022/04/18 04:36:44;;;;;;;0.10;0.10;;;7.30;99.90;;;;;;5009501;28;20184;-83
2022/04/18 04:39:10;;;;;;;0.10;0.10;;;7.30;99.90;;;;;;5018610;28;20203;-83
2022/04/18 04:41:37;;;;;;;0.37;0.23;;;7.20;99.90;;;;;;5009742;28;20189;-83
2022/04/18 04:44:03;;;;;;;0.23;0.23;;;7.30;99.90;;;;;;5003496;28;20205;-83
2022/04/18 04:46:28;;;;;;;0.77;0.57;;;7.30;99.90;;;;;;5003167;28;20275;-83
2022/04/18 04:48:54;;;;;;;0.10;0.10;;;7.30;99.90;;;;;;5008972;28;20243;-83
2022/04/18 04:51:20;;;;;;;0.10;0.10;;;7.30;99.90;;;;;;5005657;28;20206;-83
2022/04/18 04:53:46;;;;;;;0.30;0.30;;;7.40;99.90;;;;;;5010658;28;20282;-83
2022/04/18 04:56:11;;;;;;;0.23;0.23;;;7.40;99.90;;;;;;5003211;28;20195;-83
2022/04/18 04:58:37;;;;;;;0.20;0.20;;;7.40;99.90;;;;;;5011192;28;20207;-83
2022/04/18 05:01:02;;;;;;;0.20;0.20;;;7.40;99.90;;;;;;5003731;28;20665;-83
2022/04/18 05:03:28;;;;;;;0.30;0.30;;;7.40;99.90;;;;;;5003997;28;20187;-82
2022/04/18 05:05:53;;;;;;;0.10;0.10;;;7.50;99.90;;;;;;5002156;28;20202;-83
2022/04/18 05:08:19;;;;;;;0.43;0.23;;;7.40;99.90;;;;;;5003700;28;20245;-83
2022/04/18 05:10:44;;;;;;;0.10;0.10;;;7.50;99.90;;;;;;5019014;28;20228;-83
2022/04/18 05:13:10;;;;;;;0.80;0.80;;;7.60;99.90;;;;;;5017705;28;20188;-80
2022/04/18 05:15:35;;;;;;;0.77;0.33;;;7.70;99.90;;;;;;5004847;28;20198;-80
2022/04/18 05:18:01;;;;;;;0.83;0.17;;;7.80;99.90;;;;;;5011668;28;20210;-80
2022/04/18 05:20:27;;;;;;;0.10;0.10;;;8.00;99.90;;;;;;5011071;28;20174;-81
2022/04/18 05:22:53;;;;;;;0.10;0.10;;;8.00;99.90;;;;;;5013321;28;20188;-80
2022/04/18 05:25:20;;;;;;;0.10;0.10;;;8.10;99.90;;;;;;5014401;28;20185;-81
2022/04/18 05:27:46;;;;;;;0.20;0.20;;;8.10;99.90;;;;;;4998216;28;20218;-80
2022/04/18 05:30:12;;;;;;;0.20;0.20;;;8.20;99.90;;;;;;5012214;28;20187;-80
2022/04/18 05:32:37;;;;;;;0.20;0.20;;;8.20;99.90;;;;;;5005323;28;20219;-80
2022/04/18 05:35:04;;;;;;;0.43;0.43;;;8.20;99.90;;;;;;5000594;28;20217;-81
2022/04/18 05:37:30;;;;;;;0.20;0.20;;;8.20;99.90;;;;;;5012333;28;20207;-80
2022/04/18 05:39:56;;;;;;;0.30;0.30;;;8.30;99.90;;;;;;5005423;28;20233;-80
2022/04/18 05:42:23;;;;;;;0.30;0.30;;;8.40;99.90;;;;;;4998647;28;20199;-80
2022/04/18 05:44:49;;;;;;;0.20;0.20;;;8.50;99.90;;;;;;4999534;28;20186;-80
2022/04/18 05:47:14;;;;;;;0.20;0.20;;;8.50;99.90;;;;;;4998089;28;20191;-80
2022/04/18 05:49:40;;;;;;;0.10;0.10;;;8.70;99.90;;;;;;4997273;28;20193;-80
2022/04/18 05:52:06;;;;;;;0.40;0.40;;;8.80;99.90;;;;;;5000141;28;20213;-80
2022/04/18 05:54:32;;;;;;;0.10;0.10;;;8.80;99.90;;;;;;4997163;28;20584;-80
2022/04/18 05:56:59;;;;;;;0.20;0.20;;;8.90;99.90;;;;;;4997747;28;20186;-80
2022/04/18 05:59:24;;;;;;;0.17;0.17;;;9.00;99.90;;;;;;5013569;28;20222;-80
2022/04/18 06:01:50;;;;;;;0.57;0.47;;;9.20;99.90;;;;;;4999003;28;20285;-80
2022/04/18 06:04:15;;;;;;;0.10;0.10;;;9.10;99.90;;;;;;4995413;28;20181;-80
2022/04/18 06:06:41;;;;;;;0.30;0.30;;;9.30;99.90;;;;;;5003088;28;20202;-80
2022/04/18 06:09:06;;;;;;;0.30;0.30;;;9.40;99.90;;;;;;4999008;28;20623;-80
2022/04/18 06:11:32;;;;;;;0.30;0.30;;;9.40;99.90;;;;;;5005208;28;20267;-80
2022/04/18 06:13:58;;;;;;;0.10;0.10;;;9.60;99.90;;;;;;5004763;28;20218;-81
2022/04/18 06:16:23;;;;;;;0.10;0.10;;;9.70;99.90;;;;;;5005303;28;20199;-80
2022/04/18 06:18:49;;;;;;;0.20;0.20;;;9.70;99.90;;;;;;5003381;28;20203;-81
2022/04/18 06:21:14;;;;;;;0.30;0.30;;;9.90;99.90;;;;;;5002893;28;20206;-80
2022/04/18 06:23:40;;;;;;;0.10;0.10;;;9.90;99.90;;;;;;4997910;28;20197;-80
2022/04/18 06:26:05;;;;;;;0.10;0.10;;;10.10;99.90;;;;;;5005132;28;20196;-80
2022/04/18 06:28:31;;;;;;;0.10;0.10;;;10.10;99.90;;;;;;5000169;28;20209;-81
2022/04/18 06:30:56;;;;;;;1.03;0.20;;;10.30;99.90;;;;;;5003326;28;20240;-81
2022/04/18 06:33:22;;;;;;;0.47;0.43;;;10.20;99.90;;;;;;4999175;28;20187;-81
2022/04/18 06:35:48;;;;;;;1.20;0.27;;;10.40;99.90;;;;;;5002742;28;20213;-80
2022/04/18 06:38:13;;;;;;;0.10;0.10;;;10.30;99.90;;;;;;5001409;28;20612;-80
2022/04/18 06:40:39;;;;;;;0.30;0.30;;;10.40;99.90;;;;;;5006859;28;20190;-80
2022/04/18 06:43:05;;;;;;;0.10;0.10;;;10.70;99.90;;;;;;5016144;28;20218;-80
2022/04/18 06:45:31;;;;;;;0.20;0.20;;;10.90;99.90;;;;;;5000660;28;20267;-81
2022/04/18 06:47:56;;;;;;;0.40;0.40;;;11.00;99.90;;;;;;4998635;28;20211;-81
2022/04/18 06:50:22;;;;;;;0.20;0.20;;;10.70;99.90;;;;;;5002998;28;20271;-81
2022/04/18 06:52:50;;;;;;;0.20;0.20;;;10.90;99.90;;;;;;5018036;28;20641;-81
2022/04/18 06:55:15;;;;;;;0.10;0.10;;;10.70;99.90;;;;;;5009818;28;20198;-81
2022/04/18 06:57:41;;;;;;;0.20;0.20;;;11.00;99.90;;;;;;5009058;28;20286;-82
2022/04/18 07:00:07;;;;;;;0.10;0.10;;;11.30;99.90;;;;;;4999783;28;20183;-81
2022/04/18 07:02:33;;;;;;;0.30;0.30;;;11.50;99.90;;;;;;5001040;28;20270;-81
2022/04/18 07:04:59;;;;;;;0.30;0.20;;;11.40;99.90;;;;;;5004099;28;20254;-83
2022/04/18 07:07:24;;;;;;;0.27;0.27;;;11.80;99.90;;;;;;5009854;28;20249;-83
2022/04/18 07:09:50;;;;;;;0.40;0.40;;;11.80;99.90;;;;;;5007711;28;20591;-80
2022/04/18 07:12:20;;;;;;;0.50;0.50;;;11.80;99.90;;;;;;5000967;28;20277;-80
2022/04/18 07:14:46;;;;;;;0.47;0.47;;;11.80;99.90;;;;;;5000639;28;20179;-80
2022/04/18 07:17:12;;;;;;;3.23;0.30;;;12.10;99.90;;;;;;5016920;28;20183;-80
2022/04/18 07:19:37;;;;;;;1.53;1.33;;;11.90;99.90;;;;;;5016692;28;20265;-80
2022/04/18 07:22:03;;;;;;;0.60;0.40;;;11.80;99.90;;;;;;5001552;28;20218;-80
2022/04/18 07:24:28;;;;;;;0.63;0.33;;;12.00;99.90;;;;;;5002077;28;20263;-80
2022/04/18 07:26:54;;;;;;;0.30;0.30;;;11.90;99.90;;;;;;5017076;28;20183;-80
2022/04/18 07:29:19;;;;;;;0.30;0.30;;;11.80;99.90;;;;;;5008217;28;20213;-80
2022/04/18 07:31:45;;;;;;;0.33;0.33;;;11.90;99.90;;;;;;5015903;28;20782;-80
2022/04/18 07:34:10;;;;;;;0.20;0.20;;;12.20;99.90;;;;;;5001433;28;20183;-80
2022/04/18 07:36:36;;;;;;;0.90;0.40;;;12.60;99.90;;;;;;5002309;28;20278;-80
2022/04/18 07:39:02;;;;;;;0.20;0.20;;;12.70;99.90;;;;;;5019035;28;20215;-80
2022/04/18 07:41:29;;;;;;;0.97;0.40;;;13.00;99.90;;;;;;5001375;28;20214;-80
2022/04/18 07:43:56;;;;;;;0.60;0.60;;;13.10;99.90;;;;;;5005992;28;20200;-80
2022/04/18 07:46:22;;;;;;;0.53;0.30;;;13.30;99.90;;;;;;5007249;28;20668;-80
2022/04/18 07:48:49;;;;;;;0.10;0.10;;;12.80;99.90;;;;;;5002320;28;20203;-80
2022/04/18 07:51:35;;;;;;;0.40;0.27;;;13.20;99.90;;;;;;5002450;28;20214;-80
2022/04/18 07:54:03;;;;;;;0.20;0.20;;;13.30;99.90;;;;;;5010668;28;20201;-81
2022/04/18 07:56:29;;;;;;;3.40;0.77;;;13.10;99.90;;;;;;5013513;28;20275;-80
2022/04/18 07:58:55;;;;;;;0.13;0.13;;;12.60;99.90;;;;;;5013060;28;20324;-80
2022/04/18 08:01:21;;;;;;;1.83;0.53;;;12.70;99.90;;;;;;5005949;28;20270;-80
2022/04/18 08:03:48;;;;;;;1.13;0.40;;;12.70;99.90;;;;;;5006588;28;20194;-81
2022/04/18 08:06:14;;;;;;;0.37;0.37;;;13.10;99.90;;;;;;5005988;28;20193;-81
2022/04/18 08:08:39;;;;;;;0.20;0.20;;;13.40;99.90;;;;;;5006144;28;20599;-81
2022/04/18 08:11:05;;;;;;;0.27;0.27;;;13.70;99.90;;;;;;5000780;28;20199;-81
2022/04/18 08:13:31;;;;;;;0.40;0.40;;;13.80;99.90;;;;;;5000504;28;20291;-80
2022/04/18 08:15:57;;;;;;;0.53;0.47;;;13.90;99.90;;;;;;5015984;28;20200;-81
2022/04/18 08:18:23;;;;;;;0.60;0.60;;;13.30;99.90;;;;;;5007706;28;20742;-82
2022/04/18 08:20:48;;;;;;;0.43;0.43;;;13.30;99.90;;;;;;5006338;28;20570;-82
2022/04/18 08:23:14;;;;;;;0.50;0.50;;;13.30;99.90;;;;;;5006858;28;20220;-83
2022/04/18 08:25:40;;;;;;;0.50;0.47;;;13.50;99.90;;;;;;5007758;28;20204;-83
2022/04/18 08:28:06;;;;;;;1.50;1.40;;;13.90;99.90;;;;;;5002447;28;20295;-83
2022/04/18 08:30:31;;;;;;;0.73;0.73;;;14.10;99.90;;;;;;5007287;28;20230;-84
2022/04/18 08:32:57;;;;;;;0.37;0.37;;;14.30;99.90;;;;;;5017597;28;20286;-82
2022/04/18 08:35:22;;;;;;;0.87;0.27;;;14.40;99.90;;;;;;5001670;28;20202;-83
2022/04/18 08:37:48;;;;;;;0.30;0.30;;;14.10;99.90;;;;;;5002174;28;20215;-83
2022/04/18 08:40:14;;;;;;;0.80;0.80;;;14.40;99.90;;;;;;5006992;28;20296;-82
2022/04/18 08:42:41;;;;;;;0.30;0.30;;;14.90;99.90;;;;;;5000535;28;20241;-83
2022/04/18 08:45:09;;;;;;;0.20;0.20;;;15.30;99.90;;;;;;5008514;28;20192;-83
2022/04/18 08:53:12;;;;;;;0.30;0.30;;;15.00;99.90;;;;;;5001182;28;20230;-83
2022/04/18 08:55:38;;;;;;;0.70;0.50;;;15.00;99.90;;;;;;5007207;28;20225;-83
2022/04/18 08:58:04;;;;;;;0.50;0.40;;;15.40;99.90;;;;;;5007765;28;20209;-82
2022/04/18 09:00:30;;;;;;;0.40;0.40;;;15.30;99.90;;;;;;5016854;28;20763;-83
2022/04/18 09:02:56;;;;;;;0.10;0.10;;;15.10;99.90;;;;;;5008233;28;20230;-83
2022/04/18 09:05:22;;;;;;;0.20;0.20;;;15.50;99.90;;;;;;5015874;28;20219;-83
2022/04/18 09:08:03;;;;;;;0.23;0.23;;;16.00;99.90;;;;;;4998129;28;20250;-83
2022/04/18 09:10:29;;;;;;;0.83;0.43;;;16.30;99.90;;;;;;5006622;28;20303;-83
2022/04/18 09:13:05;;;;;;;0.77;0.40;;;16.60;99.90;;;;;;5007156;28;20208;-83
2022/04/18 09:15:42;;;;;;;0.20;0.20;;;16.40;99.90;;;;;;5000931;28;20553;-83
2022/04/18 09:18:11;;;;;;;0.20;0.20;;;15.70;99.90;;;;;;5005535;28;20210;-83
2022/04/18 09:20:54;;;;;;;1.90;0.43;;;15.80;99.90;;;;;;5000496;28;20580;-83
2022/04/18 09:23:28;;;;;;;0.70;0.60;;;15.60;99.90;;;;;;5006060;28;20273;-83
2022/04/18 09:25:59;;;;;;;0.50;0.50;;;15.90;99.90;;;;;;5017400;28;20690;-83
2022/04/18 09:28:29;;;;;;;1.50;0.40;;;16.30;99.90;;;;;;5007818;28;20210;-82
2022/04/18 09:31:03;;;;;;;0.20;0.20;;;16.60;99.90;;;;;;5015715;28;20266;-82
2022/04/18 09:33:54;;;;;;;0.47;0.47;;;16.90;99.90;;;;;;5001637;28;21144;-82
2022/04/18 09:36:22;;;;;;;0.77;0.70;;;16.30;99.90;;;;;;5007853;28;20282;-82
2022/04/18 09:38:52;;;;;;;0.10;0.10;;;15.50;99.90;;;;;;5017648;28;20208;-82
2022/04/18 09:41:28;;;;;;;0.20;0.20;;;15.50;99.90;;;;;;5007673;28;20274;-82
2022/04/18 09:43:55;;;;;;;0.73;0.73;;;15.30;99.90;;;;;;4999204;28;20207;-81
2022/04/18 09:46:22;;;;;;;0.53;0.53;;;16.00;99.90;;;;;;5001078;28;20268;-82
2022/04/18 09:48:50;;;;;;;0.20;0.20;;;16.60;99.90;;;;;;5003885;28;20206;-82
2022/04/18 09:51:22;;;;;;;0.77;0.77;;;17.00;99.90;;;;;;5001878;28;20202;-82
2022/04/18 09:53:52;;;;;;;0.60;0.50;;;17.30;99.90;;;;;;5008608;28;20218;-82
2022/04/18 09:56:21;;;;;;;0.30;0.30;;;17.00;99.90;;;;;;5002724;28;20221;-82
2022/04/18 09:58:46;;;;;;;0.87;0.83;;;16.20;99.90;;;;;;5007319;28;20211;-81
2022/04/18 10:01:13;;;;;;;0.77;0.50;;;15.70;99.90;;;;;;5000378;28;20209;-82
2022/04/18 10:03:39;;;;;;;0.40;0.40;;;15.50;99.90;;;;;;5006834;28;21066;-82
2022/04/18 10:06:07;;;;;;;3.00;1.73;;;15.40;99.90;;;;;;5004989;28;20187;-82
2022/04/18 10:08:34;;;;;;;0.20;0.20;;;15.10;99.90;;;;;;5003649;28;20223;-83
2022/04/18 10:11:03;;;;;;;0.33;0.33;;;15.20;99.90;;;;;;5011532;28;20288;-81
2022/04/18 10:13:30;;;;;;;0.30;0.30;;;15.80;99.90;;;;;;5019268;28;20226;-82
2022/04/18 10:15:58;;;;;;;0.53;0.30;;;15.80;99.90;;;;;;5004806;28;20185;-82
2022/04/18 10:18:24;;;;;;;0.53;0.53;;;16.60;99.90;;;;;;5005996;28;20213;-82
2022/04/18 10:21:08;;;;;;;1.30;0.77;;;16.90;99.90;;;;;;5012050;28;20195;-81
2022/04/18 10:23:45;;;;;;;0.47;0.43;;;16.60;99.90;;;;;;5019026;28;20226;-82
2022/04/18 10:26:29;;;;;;;0.67;0.43;;;15.90;99.90;;;;;;5003599;28;20189;-82
2022/04/18 10:29:00;;;;;;;0.30;0.30;;;16.30;99.90;;;;;;5019323;28;20273;-82
2022/04/18 10:31:33;;;;;;;0.60;0.60;;;16.30;99.90;;;;;;5006053;28;20347;-82
2022/04/18 10:33:59;;;;;;;0.47;0.47;;;16.80;99.90;;;;;;5010319;28;20199;-82
2022/04/18 10:36:31;;;;;;;0.40;0.40;;;16.90;99.90;;;;;;5018684;28;20249;-81
2022/04/18 10:39:00;;;;;;;0.83;0.83;;;16.50;99.90;;;;;;5006604;28;21173;-82
2022/04/18 10:41:37;;;;;;;0.93;0.77;;;16.80;99.90;;;;;;5004701;28;20210;-82
2022/04/18 10:44:08;;;;;;;0.60;0.60;;;16.80;99.90;;;;;;5003833;28;20241;-82
2022/04/18 10:46:42;;;;;;;1.13;0.20;;;17.10;99.90;;;;;;5003348;28;20538;-82
2022/04/18 10:49:21;;;;;;;0.30;0.30;;;16.90;99.90;;;;;;5010205;28;20253;-82
2022/04/18 10:51:50;;;;;;;0.10;0.10;;;16.60;99.90;;;;;;5004377;28;20257;-82
2022/04/18 10:54:21;;;;;;;0.93;0.50;;;16.90;99.90;;;;;;5017133;28;20653;-82
2022/04/18 10:56:57;;;;;;;0.40;0.40;;;17.00;99.90;;;;;;5002661;28;20231;-82
2022/04/18 10:59:26;;;;;;;0.30;0.30;;;17.40;99.90;;;;;;5018853;28;20280;-82
2022/04/18 11:01:54;;;;;;;0.40;0.40;;;17.30;99.90;;;;;;5003488;28;20197;-82
2022/04/18 11:04:28;;;;;;;0.50;0.50;;;16.80;99.90;;;;;;5017276;28;20207;-82
2022/04/18 11:07:05;;;;;;;0.10;0.10;;;17.00;99.90;;;;;;5003449;28;20206;-83
2022/04/18 11:09:35;;;;;;;0.47;0.30;;;17.50;99.90;;;;;;5003735;28;20194;-82
2022/04/18 11:12:10;;;;;;;2.03;0.37;;;17.60;99.90;;;;;;5003581;28;21029;-82
2022/04/18 11:14:52;;;;;;;0.50;0.50;;;17.60;99.90;;;;;;5001400;28;20191;-82
2022/04/18 11:17:44;;;;;;;0.53;0.53;;;17.30;99.90;;;;;;5003845;28;20986;-82
2022/04/18 11:20:31;;;;;;;0.60;0.60;;;16.80;99.90;;;;;;5003021;28;20204;-82
2022/04/18 11:23:19;;;;;;;0.20;0.20;;;16.50;99.90;;;;;;5001358;28;20187;-82
2022/04/18 11:25:59;;;;;;;1.37;0.33;;;16.80;99.90;;;;;;5019131;28;20195;-83
2022/04/18 11:28:39;;;;;;;0.30;0.30;;;17.20;99.90;;;;;;5010051;28;20267;-82
2022/04/18 11:31:30;;;;;;;1.07;0.30;;;18.00;99.90;;;;;;5009596;28;20211;-82
2022/04/18 11:34:01;;;;;;;0.70;0.70;;;18.10;99.90;;;;;;5001828;28;20190;-82
2022/04/18 11:36:28;;;;;;;3.30;1.50;;;18.30;99.90;;;;;;5003135;28;20184;-82
2022/04/18 11:39:05;;;;;;;1.03;0.20;;;17.80;99.90;;;;;;5010925;28;21061;-82
2022/04/18 11:41:31;;;;;;;0.87;0.50;;;17.50;99.90;;;;;;5018230;28;20273;-82
2022/04/18 11:43:58;;;;;;;0.50;0.47;;;16.70;99.90;;;;;;5003954;28;20649;-81
2022/04/18 11:46:29;;;;;;;1.30;0.40;;;17.20;99.90;;;;;;5004395;28;20245;-80
2022/04/18 11:48:54;;;;;;;0.50;0.50;;;17.80;99.90;;;;;;4999909;28;20217;-80
2022/04/18 11:51:40;;;;;;;0.40;0.40;;;18.40;99.90;;;;;;5015959;28;20203;-82
2022/04/18 11:54:05;;;;;;;0.20;0.20;;;18.50;99.90;;;;;;4999754;28;20191;-80
2022/04/18 11:56:31;;;;;;;0.93;0.93;;;18.40;99.90;;;;;;5015301;28;20191;-80
2022/04/18 11:58:58;;;;;;;1.47;0.67;;;18.00;99.90;;;;;;5001573;28;20241;-80
2022/04/18 12:06:53;;;;;;;0.37;0.37;;;18.10;99.90;;;;;;4999295;28;20891;-80
2022/04/18 12:09:25;;;;;;;0.80;0.80;;;17.90;99.90;;;;;;5015963;28;20210;-80
2022/04/18 12:11:51;;;;;;;0.50;0.50;;;17.20;99.90;;;;;;5016918;28;20226;-80
2022/04/18 12:14:18;;;;;;;0.50;0.50;;;17.00;99.90;;;;;;5000888;28;20703;-80
2022/04/18 12:16:44;;;;;;;0.17;0.17;;;17.10;99.90;;;;;;5001623;28;20210;-80
2022/04/18 12:19:15;;;;;;;0.20;0.20;;;17.20;99.90;;;;;;5006381;28;20318;-80
2022/04/18 12:21:42;;;;;;;0.33;0.30;;;17.90;99.90;;;;;;5000470;28;20190;-80
2022/04/18 12:24:08;;;;;;;1.60;0.20;;;18.40;99.90;;;;;;4998311;28;20278;-80
2022/04/18 12:26:34;;;;;;;0.60;0.60;;;18.60;99.90;;;;;;5000487;28;21079;-80
2022/04/18 12:29:05;;;;;;;0.40;0.40;;;18.60;99.90;;;;;;5015451;28;20207;-80
2022/04/18 12:31:31;;;;;;;2.53;0.37;;;18.40;99.90;;;;;;5005917;28;20203;-80
2022/04/18 12:33:57;;;;;;;0.30;0.30;;;17.80;99.90;;;;;;5005014;28;20179;-80
2022/04/18 12:36:25;;;;;;;1.87;1.77;;;17.90;99.90;;;;;;5005727;28;20184;-80
2022/04/18 12:38:51;;;;;;;0.87;0.87;;;17.30;99.90;;;;;;5007163;28;20238;-80
2022/04/18 12:41:34;;;;;;;0.27;0.27;;;17.40;99.90;;;;;;5000294;28;20195;-80
2022/04/18 12:44:01;;;;;;;0.30;0.30;;;17.90;99.90;;;;;;4999475;28;20519;-80
2022/04/18 12:46:32;;;;;;;0.50;0.30;;;18.60;99.90;;;;;;4999948;28;20623;-80
2022/04/18 12:49:02;;;;;;;0.33;0.33;;;19.00;99.90;;;;;;5014180;28;20240;-80
2022/04/18 12:51:32;;;;;;;0.40;0.40;;;19.10;99.90;;;;;;5000685;28;20210;-80
2022/04/18 12:53:58;;;;;;;1.00;0.73;;;18.80;99.90;;;;;;5000113;28;20190;-81
2022/04/18 12:56:26;;;;;;;0.20;0.20;;;18.50;99.90;;;;;;5006669;28;20262;-80
2022/04/18 12:58:52;;;;;;;0.47;0.47;;;18.30;99.90;;;;;;4998357;28;20220;-80
2022/04/18 13:01:34;;;;;;;0.50;0.50;;;18.60;99.90;;;;;;5014792;28;20947;-80
2022/04/18 13:04:05;;;;;;;0.57;0.40;;;18.00;99.90;;;;;;5015500;28;20175;-80
2022/04/18 13:06:33;;;;;;;0.63;0.63;;;18.00;99.90;;;;;;5000990;28;20721;-80
2022/04/18 13:09:09;;;;;;;0.37;0.37;;;17.70;99.90;;;;;;4999969;28;20211;-80
2022/04/18 13:11:43;;;;;;;0.30;0.30;;;17.90;99.90;;;;;;4999576;28;20199;-80
2022/04/18 13:14:10;;;;;;;0.57;0.37;;;18.20;99.90;;;;;;5001368;28;20652;-80
2022/04/18 13:16:37;;;;;;;0.83;0.83;;;18.20;99.90;;;;;;5001023;28;20182;-80